Time;durP1;ratioP1;P1;durP2;ratioP2;P2;SDS_P1;SDS_P2;PMS_P1;PMS_P2;Temp;Humidity;BMP_temperature;BMP_pressure;BME280_temperature;BME280_humidity;BME280_pressure;Samples;Min_cycle;Max_cycle;Signal;HPM_P1;HPM_P2
2022/07/28 00:01:46;;;;;;;11.07;2.55;;;;;;;12.73;65.97;99566.88;5073686;28;20039;-57
2022/07/28 00:04:11;;;;;;;8.45;2.75;;;;;;;12.49;67.00;99568.13;5071474;28;20036;-57
2022/07/28 00:06:36;;;;;;;7.32;2.67;;;;;;;12.30;67.12;99571.09;5073436;28;20078;-56
2022/07/28 00:09:02;;;;;;;11.32;3.33;;;;;;;12.45;65.84;99561.59;5072858;28;20035;-57
2022/07/28 00:11:28;;;;;;;16.05;2.97;;;;;;;12.50;65.46;99565.22;5072403;28;20024;-56
2022/07/28 00:13:53;;;;;;;10.05;2.83;;;;;;;12.51;65.49;99574.09;5072123;28;20016;-56
2022/07/28 00:16:18;;;;;;;6.15;2.55;;;;;;;12.60;66.22;99566.41;5073207;28;20071;-55
2022/07/28 00:18:44;;;;;;;8.82;2.67;;;;;;;12.50;66.53;99559.00;5073027;28;20066;-56
2022/07/28 00:21:09;;;;;;;5.80;2.60;;;;;;;12.72;65.48;99557.16;5072919;28;20033;-56
2022/07/28 00:23:35;;;;;;;6.38;2.60;;;;;;;12.29;66.27;99563.25;5073022;28;20032;-57
2022/07/28 00:26:00;;;;;;;10.30;3.05;;;;;;;12.48;65.85;99555.72;5072970;28;20017;-57
2022/07/28 00:28:26;;;;;;;5.05;2.50;;;;;;;12.18;66.61;99551.56;5072669;28;20466;-57
2022/07/28 00:30:54;;;;;;;6.72;2.70;;;;;;;12.30;68.27;99554.97;5073260;28;20021;-56
2022/07/28 00:33:19;;;;;;;9.27;3.15;;;;;;;12.53;66.79;99547.78;5072411;28;20024;-56
2022/07/28 00:35:45;;;;;;;6.43;3.00;;;;;;;12.61;65.63;99550.03;5077192;28;20375;-55
2022/07/28 00:38:10;;;;;;;4.38;2.50;;;;;;;12.80;66.61;99547.03;5072741;28;20035;-57
2022/07/28 00:43:20;;;;;;;5.47;2.70;;;;;;;12.60;66.32;99537.63;5072565;28;20038;-57
2022/07/28 00:45:46;;;;;;;5.97;2.63;;;;;;;12.49;66.72;99538.56;5071412;28;20021;-57
2022/07/28 00:48:11;;;;;;;6.05;2.70;;;;;;;12.49;67.74;99536.69;5072189;28;20040;-56
2022/07/28 00:50:40;;;;;;;11.70;3.05;;;;;;;12.38;67.37;99539.47;5072312;28;20066;-57
2022/07/28 00:53:06;;;;;;;9.65;3.15;;;;;;;12.44;66.35;99549.25;5072802;28;20035;-57
2022/07/28 00:55:31;;;;;;;7.80;2.75;;;;;;;12.29;67.25;99547.13;5072764;28;20024;-57
2022/07/28 00:57:57;;;;;;;5.95;2.80;;;;;;;12.11;68.15;99545.53;5072276;28;20378;-57
2022/07/28 01:00:22;;;;;;;12.05;3.30;;;;;;;12.05;68.08;99543.81;5054847;28;20033;-55
2022/07/28 01:02:47;;;;;;;12.65;3.88;;;;;;;12.05;69.61;99538.44;5070134;28;20044;-56
2022/07/28 01:05:13;;;;;;;8.75;3.33;;;;;;;12.08;68.52;99540.63;5054488;28;20032;-56
2022/07/28 01:07:52;;;;;;;11.23;3.00;;;;;;;11.77;69.12;99545.47;5074576;28;20491;-56
2022/07/28 01:10:32;;;;;;;8.48;2.80;;;;;;;12.20;67.70;99543.22;5071144;28;20024;-56
2022/07/28 01:13:03;;;;;;;8.48;2.90;;;;;;;12.23;68.02;99543.56;5072100;28;20028;-56
2022/07/28 01:15:40;;;;;;;7.15;2.92;;;;;;;12.05;68.29;99536.53;5071058;28;20075;-56
2022/07/28 01:18:09;;;;;;;13.48;3.60;;;;;;;11.85;69.73;99539.69;5070164;28;20367;-57
2022/07/28 01:21:05;;;;;;;10.93;3.10;;;;;;;11.88;70.08;99530.34;5071611;28;20020;-56
2022/07/28 01:23:30;;;;;;;8.60;3.28;;;;;;;11.90;70.73;99532.81;5070678;28;20036;-56
2022/07/28 01:26:05;;;;;;;7.50;2.95;;;;;;;11.39;70.94;99533.53;5072329;28;20033;-55
2022/07/28 01:28:36;;;;;;;7.22;3.30;;;;;;;11.31;71.53;99528.53;5071917;28;20025;-56
2022/07/28 01:31:04;;;;;;;11.68;3.17;;;;;;;11.30;72.10;99534.13;5072167;28;20025;-56
2022/07/28 01:33:46;;;;;;;8.63;3.20;;;;;;;11.45;71.12;99524.50;5077813;28;20073;-56
2022/07/28 01:36:14;;;;;;;7.15;3.05;;;;;;;11.48;71.56;99530.44;5055784;28;20021;-56
2022/07/28 01:38:39;;;;;;;6.00;3.22;;;;;;;11.52;70.98;99528.91;5070677;28;20052;-56
2022/07/28 01:41:07;;;;;;;8.77;3.05;;;;;;;11.35;71.38;99527.00;5071896;28;20039;-57
2022/07/28 01:43:35;;;;;;;6.72;3.05;;;;;;;11.10;73.38;99518.47;5072054;28;20501;-56
2022/07/28 01:46:00;;;;;;;11.80;3.30;;;;;;;11.36;71.94;99515.22;5072131;28;20035;-56
2022/07/28 01:48:26;;;;;;;8.10;3.42;;;;;;;11.37;72.12;99514.16;5053179;28;20029;-56
2022/07/28 01:50:51;;;;;;;12.27;3.63;;;;;;;11.43;72.72;99513.22;5075587;28;20086;-56
2022/07/28 01:53:17;;;;;;;6.30;3.03;;;;;;;11.52;72.43;99504.75;5055832;28;20070;-57
2022/07/28 01:55:42;;;;;;;9.05;3.13;;;;;;;11.64;71.98;99502.81;5073480;28;20031;-56
2022/07/28 01:58:08;;;;;;;13.23;3.20;;;;;;;11.47;69.93;99502.78;5073174;28;20029;-57
2022/07/28 02:00:34;;;;;;;10.88;3.42;;;;;;;11.36;70.39;99504.50;5053835;28;20024;-56
2022/07/28 02:02:59;;;;;;;8.27;3.13;;;;;;;11.38;71.88;99498.84;5069462;28;20539;-57
2022/07/28 02:05:25;;;;;;;6.85;2.97;;;;;;;11.23;72.95;99502.06;5070345;28;20021;-56
2022/07/28 02:07:50;;;;;;;12.75;3.40;;;;;;;11.35;71.61;99502.84;5057642;28;20047;-56
2022/07/28 02:10:16;;;;;;;11.75;3.20;;;;;;;11.45;71.50;99496.84;5070137;28;20036;-57
2022/07/28 02:12:43;;;;;;;8.05;3.30;;;;;;;11.44;70.39;99504.09;5071539;28;20078;-56
2022/07/28 02:15:10;;;;;;;9.25;3.03;;;;;;;11.40;70.35;99497.56;5053847;28;20059;-57
2022/07/28 02:17:35;;;;;;;9.25;3.40;;;;;;;11.43;70.74;99502.47;5071152;28;20086;-57
2022/07/28 02:20:01;;;;;;;14.00;3.70;;;;;;;11.51;70.39;99501.25;5070336;28;20115;-55
2022/07/28 02:22:27;;;;;;;13.05;3.47;;;;;;;11.48;70.82;99498.22;5070899;28;20090;-57
2022/07/28 02:24:53;;;;;;;8.18;3.50;;;;;;;11.36;71.17;99507.16;5067429;28;20025;-58
2022/07/28 02:27:49;;;;;;;11.40;3.60;;;;;;;11.07;71.55;99497.50;5071363;28;20032;-57
2022/07/28 02:30:24;;;;;;;7.35;3.25;;;;;;;11.34;72.34;99493.19;5070830;28;20039;-56
2022/07/28 02:32:52;;;;;;;10.70;3.40;;;;;;;11.06;71.20;99485.13;5075322;28;20020;-57
2022/07/28 02:35:50;;;;;;;12.85;3.78;;;;;;;11.09;71.34;99490.03;5076796;28;20119;-57
2022/07/28 02:38:37;;;;;;;9.75;3.33;;;;;;;11.42;72.59;99489.28;5062818;28;20504;-55
2022/07/28 02:41:15;;;;;;;8.82;3.00;;;;;;;11.34;71.07;99482.44;5074255;28;20020;-56
2022/07/28 02:43:42;;;;;;;9.55;3.80;;;;;;;11.41;73.03;99483.09;5074966;28;20023;-57
2022/07/28 02:46:09;;;;;;;7.28;3.40;;;;;;;11.19;71.91;99482.97;5074896;28;20089;-56
2022/07/28 02:48:35;;;;;;;7.93;3.05;;;;;;;11.17;71.25;99481.59;5073761;28;20078;-55
2022/07/28 02:51:01;;;;;;;9.70;3.15;;;;;;;10.95;70.57;99473.38;5073922;28;20028;-58
2022/07/28 02:53:26;;;;;;;8.20;3.20;;;;;;;10.90;71.02;99470.59;5073383;28;20108;-57
2022/07/28 02:55:52;;;;;;;11.55;3.45;;;;;;;10.92;72.44;99472.00;5074680;28;20027;-57
2022/07/28 02:58:19;;;;;;;9.65;3.25;;;;;;;10.85;72.96;99468.63;5057100;28;20410;-56
2022/07/28 03:00:46;;;;;;;10.75;3.10;;;;;;;10.80;73.05;99465.84;5073479;28;20029;-58
2022/07/28 03:03:11;;;;;;;9.75;3.33;;;;;;;10.78;72.04;99457.22;5072498;28;20525;-58
2022/07/28 03:05:39;;;;;;;10.25;3.42;;;;;;;10.89;71.58;99463.63;5073215;28;20024;-56
2022/07/28 03:08:04;;;;;;;11.90;3.30;;;;;;;10.95;73.31;99460.78;5073202;28;20025;-57
2022/07/28 03:10:30;;;;;;;10.52;3.60;;;;;;;10.94;71.62;99469.09;5074384;28;20475;-56
2022/07/28 03:12:55;;;;;;;10.13;3.60;;;;;;;10.85;72.47;99468.63;5080935;28;20024;-57
2022/07/28 03:15:21;;;;;;;10.30;3.85;;;;;;;10.80;73.36;99465.84;5073142;28;20025;-59
2022/07/28 03:17:47;;;;;;;15.60;3.22;;;;;;;10.84;73.45;99471.56;5074058;28;20025;-56
2022/07/28 03:20:12;;;;;;;9.80;3.45;;;;;;;10.78;72.69;99473.31;5074391;28;20539;-57
2022/07/28 03:22:38;;;;;;;6.15;3.03;;;;;;;10.60;73.51;99470.81;5072985;28;20029;-56
2022/07/28 03:25:06;;;;;;;9.25;3.60;;;;;;;10.45;73.20;99466.75;5074486;28;20026;-56
2022/07/28 03:27:33;;;;;;;8.30;3.00;;;;;;;10.38;73.01;99467.94;5074317;28;20033;-56
2022/07/28 03:30:06;;;;;;;11.43;3.65;;;;;;;10.27;73.44;99464.19;5073489;28;20055;-56
2022/07/28 03:32:33;;;;;;;11.90;3.40;;;;;;;10.09;73.98;99460.59;5074727;28;20364;-57
2022/07/28 03:34:59;;;;;;;9.80;3.70;;;;;;;10.15;74.12;99453.47;5072587;28;20029;-57
2022/07/28 03:37:27;;;;;;;9.23;3.92;;;;;;;10.22;73.85;99458.72;5072862;28;20024;-56
2022/07/28 03:39:53;;;;;;;13.25;3.75;;;;;;;10.29;74.12;99459.44;5074284;28;20028;-56
2022/07/28 03:42:19;;;;;;;11.32;4.10;;;;;;;10.38;73.63;99468.75;5070210;28;20040;-57
2022/07/28 03:44:45;;;;;;;10.25;3.30;;;;;;;10.63;74.17;99467.66;5043778;28;20027;-56
2022/07/28 03:47:11;;;;;;;10.02;3.40;;;;;;;10.50;72.79;99466.84;5073734;28;20054;-57
2022/07/28 03:49:37;;;;;;;9.35;3.35;;;;;;;10.46;72.80;99463.03;5055202;28;20024;-56
2022/07/28 03:52:03;;;;;;;8.65;3.50;;;;;;;10.52;72.93;99467.44;5073580;28;20078;-57
2022/07/28 03:54:28;;;;;;;11.10;3.88;;;;;;;10.41;73.29;99462.09;5073742;28;20029;-58
2022/07/28 03:56:54;;;;;;;10.10;3.35;;;;;;;10.54;73.46;99462.66;5073888;28;20036;-57
2022/07/28 03:59:20;;;;;;;9.82;4.10;;;;;;;10.57;74.35;99462.19;5073868;28;20016;-57
2022/07/28 04:01:45;;;;;;;12.90;3.75;;;;;;;10.31;74.04;99457.34;5076942;28;20360;-57
2022/07/28 04:04:11;;;;;;;13.00;3.58;;;;;;;10.25;74.25;99456.38;5074655;28;20044;-56
2022/07/28 04:06:36;;;;;;;14.75;3.90;;;;;;;10.43;74.22;99460.81;5074594;28;20032;-56
2022/07/28 04:09:02;;;;;;;11.35;3.70;;;;;;;10.63;72.96;99464.97;5073615;28;20070;-56
2022/07/28 04:11:28;;;;;;;10.43;3.20;;;;;;;11.17;72.71;99462.81;5072222;28;20035;-56
2022/07/28 04:13:54;;;;;;;11.18;3.50;;;;;;;12.12;67.78;99461.16;5076236;28;20386;-56
2022/07/28 04:16:20;;;;;;;10.68;3.80;;;;;;;13.05;64.03;99458.56;5067828;28;20168;-55
2022/07/28 04:18:46;;;;;;;10.48;3.38;;;;;;;13.21;63.00;99445.28;5073630;28;20042;-58
2022/07/28 04:21:12;;;;;;;11.77;3.60;;;;;;;14.53;58.83;99456.25;5072982;28;20028;-57
2022/07/28 04:23:37;;;;;;;7.28;3.20;;;;;;;14.84;58.15;99457.19;5071819;28;20031;-56
2022/07/28 04:26:03;;;;;;;8.27;3.40;;;;;;;15.72;54.88;99460.84;5073889;28;20386;-58
2022/07/28 04:28:28;;;;;;;12.48;3.20;;;;;;;16.24;53.22;99459.72;5072785;28;20486;-57
2022/07/28 04:30:54;;;;;;;10.82;3.20;;;;;;;16.71;52.25;99449.56;5072940;28;20024;-57
2022/07/28 04:33:19;;;;;;;9.65;3.22;;;;;;;17.31;51.72;99461.16;5072522;28;20098;-57
2022/07/28 04:35:45;;;;;;;14.00;3.90;;;;;;;17.84;49.13;99449.69;5072748;28;20082;-57
2022/07/28 04:38:13;;;;;;;9.77;3.40;;;;;;;17.33;50.20;99455.47;5072642;28;20028;-57
2022/07/28 04:40:39;;;;;;;8.30;3.00;;;;;;;17.64;49.81;99456.06;5078416;28;20386;-56
2022/07/28 04:43:04;;;;;;;13.10;3.42;;;;;;;18.16;48.31;99457.25;5072826;28;20028;-57
2022/07/28 04:45:30;;;;;;;21.45;4.55;;;;;;;18.90;46.90;99465.13;5072947;28;20025;-57
2022/07/28 04:47:55;;;;;;;9.40;3.60;;;;;;;19.04;46.00;99465.19;5078267;28;20028;-57
2022/07/28 04:50:21;;;;;;;9.68;3.95;;;;;;;19.53;45.07;99467.44;5072514;28;20032;-57
2022/07/28 04:52:48;;;;;;;15.35;3.80;;;;;;;19.19;45.29;99467.69;5072771;28;20025;-57
2022/07/28 04:55:17;;;;;;;19.35;4.65;;;;;;;19.28;45.24;99476.00;5072262;28;20101;-57
2022/07/28 04:57:42;;;;;;;13.85;3.15;;;;;;;19.61;44.47;99471.41;5072257;28;20024;-57
2022/07/28 05:00:12;;;;;;;12.75;4.20;;;;;;;20.63;42.86;99479.72;5071235;28;20028;-57
2022/07/28 05:02:38;;;;;;;12.82;3.80;;;;;;;21.22;41.74;99477.13;5071682;28;20109;-57
2022/07/28 05:05:04;;;;;;;9.90;3.80;;;;;;;21.72;40.67;99477.88;5072378;28;20498;-57
2022/07/28 05:07:29;;;;;;;13.85;4.22;;;;;;;20.31;42.94;99478.66;5082144;28;20027;-57
2022/07/28 05:09:54;;;;;;;11.63;4.38;;;;;;;20.93;42.00;99469.31;5088282;28;20471;-57
2022/07/28 05:12:20;;;;;;;13.15;3.70;;;;;;;20.85;42.32;99465.41;5084184;28;20027;-56
2022/07/28 05:14:46;;;;;;;17.05;4.20;;;;;;;21.08;41.48;99463.53;5082816;28;20032;-56
2022/07/28 05:17:12;;;;;;;11.98;3.97;;;;;;;22.78;38.72;99461.69;5084582;28;20100;-57
2022/07/28 05:19:37;;;;;;;11.73;3.55;;;;;;;23.21;37.67;99462.91;5085656;28;20458;-57
2022/07/28 05:22:03;;;;;;;12.43;3.63;;;;;;;22.71;38.18;99474.19;5084507;28;20551;-57
2022/07/28 05:24:28;;;;;;;14.23;3.80;;;;;;;23.03;37.04;99473.81;5084591;28;20027;-56
2022/07/28 05:26:54;;;;;;;15.15;3.22;;;;;;;22.98;37.97;99476.72;5085170;28;20394;-56
2022/07/28 05:29:19;;;;;;;13.55;3.70;;;;;;;23.10;37.39;99472.56;5079498;28;20063;-57
2022/07/28 05:31:44;;;;;;;9.02;3.35;;;;;;;23.20;37.07;99477.72;5086378;28;20020;-55
2022/07/28 05:34:10;;;;;;;12.30;3.40;;;;;;;20.27;42.78;99474.94;5085153;28;20024;-56
2022/07/28 05:36:35;;;;;;;13.32;3.63;;;;;;;18.31;46.75;99470.63;5084431;28;20091;-57
2022/07/28 05:39:10;;;;;;;18.85;3.40;;;;;;;17.80;48.59;99471.13;5086571;28;20379;-56
2022/07/28 05:41:42;;;;;;;13.73;3.53;;;;;;;17.17;50.70;99471.84;5085767;28;20023;-57
2022/07/28 05:44:10;;;;;;;28.10;4.70;;;;;;;16.85;51.34;99466.84;5081933;28;20032;-56
2022/07/28 05:46:36;;;;;;;22.10;5.30;;;;;;;16.78;51.65;99466.34;5081651;28;20027;-56
2022/07/28 05:49:02;;;;;;;43.50;5.80;;;;;;;16.91;51.17;99463.03;5081129;28;20463;-57
2022/07/28 05:51:27;;;;;;;37.17;5.82;;;;;;;17.17;50.73;99457.47;5084749;28;20482;-56
2022/07/28 05:53:53;;;;;;;35.60;5.15;;;;;;;17.83;51.47;99457.00;5080243;28;20496;-57
2022/07/28 05:56:20;;;;;;;58.53;5.97;;;;;;;17.79;49.16;99458.63;5084607;28;20024;-56
2022/07/28 05:58:45;;;;;;;62.30;6.40;;;;;;;19.39;45.74;99461.97;5083569;28;20024;-56
2022/07/28 06:01:11;;;;;;;35.78;5.03;;;;;;;21.83;40.86;99458.53;5084335;28;20387;-56
2022/07/28 06:03:39;;;;;;;50.78;6.43;;;;;;;21.57;40.87;99461.88;5085914;28;20044;-57
2022/07/28 06:06:05;;;;;;;68.95;6.13;;;;;;;20.81;42.83;99457.00;5084249;28;20044;-56
2022/07/28 06:08:31;;;;;;;63.70;6.28;;;;;;;21.03;41.96;99463.63;5080983;28;20144;-56
2022/07/28 06:11:10;;;;;;;56.95;5.60;;;;;;;21.73;42.26;99462.31;5075784;28;20051;-56
2022/07/28 06:13:36;;;;;;;40.15;5.32;;;;;;;22.22;41.05;99455.09;5077568;28;20017;-56
2022/07/28 06:16:02;;;;;;;47.50;5.43;;;;;;;22.42;40.63;99470.09;5074395;28;20374;-56
2022/07/28 06:18:28;;;;;;;58.63;5.95;;;;;;;23.70;38.65;99477.22;5075310;28;20078;-56
2022/07/28 06:20:53;;;;;;;63.85;6.43;;;;;;;23.17;39.91;99467.44;5075388;28;20395;-56
2022/07/28 06:23:20;;;;;;;52.22;5.50;;;;;;;24.88;36.86;99479.44;5075449;28;20047;-55
2022/07/28 06:25:46;;;;;;;78.40;6.88;;;;;;;25.92;34.51;99477.84;5075573;28;20028;-56
2022/07/28 06:28:12;;;;;;;74.15;6.88;;;;;;;24.49;35.81;99483.34;5076137;28;20040;-57
2022/07/28 06:30:37;;;;;;;63.15;6.55;;;;;;;25.57;34.79;99486.38;5075399;28;20040;-57
2022/07/28 06:33:04;;;;;;;79.32;6.40;;;;;;;25.79;34.00;99484.41;5074879;28;20027;-56
2022/07/28 06:35:31;;;;;;;37.95;5.57;;;;;;;27.04;31.81;99482.28;5079420;28;20059;-56
2022/07/28 06:37:56;;;;;;;67.68;6.55;;;;;;;26.07;33.43;99478.34;5076758;28;20450;-56
2022/07/28 06:40:22;;;;;;;58.88;5.97;;;;;;;26.26;33.29;99475.88;5075258;28;20110;-56
2022/07/28 06:42:48;;;;;;;50.97;5.38;;;;;;;26.50;32.89;99479.78;5080295;28;20454;-56
2022/07/28 06:45:14;;;;;;;50.80;6.78;;;;;;;26.03;33.90;99468.03;5076521;28;20025;-56
2022/07/28 06:47:39;;;;;;;55.28;5.95;;;;;;;26.49;32.86;99478.97;5074370;28;20438;-56
2022/07/28 06:50:05;;;;;;;62.97;6.63;;;;;;;26.12;33.60;99472.63;5073768;28;20059;-54
2022/07/28 06:52:32;;;;;;;65.13;6.57;;;;;;;25.72;34.05;99475.91;5074349;28;20494;-56
2022/07/28 06:54:59;;;;;;;79.40;6.70;;;;;;;26.50;33.18;99477.03;5074918;28;20054;-54
2022/07/28 06:57:24;;;;;;;26.77;3.50;;;;;;;24.75;34.89;99481.28;5075953;28;20028;-56
2022/07/28 06:59:50;;;;;;;27.33;3.47;;;;;;;25.86;33.99;99472.91;5073317;28;20109;-56
2022/07/28 07:02:15;;;;;;;25.30;3.60;;;;;;;24.74;35.47;99473.41;5074404;28;20028;-55
2022/07/28 07:04:41;;;;;;;17.77;3.60;;;;;;;24.21;36.47;99475.53;5074094;28;20058;-55
2022/07/28 07:07:06;;;;;;;15.75;3.05;;;;;;;25.59;34.56;99467.63;5074318;28;20033;-55
2022/07/28 07:09:32;;;;;;;11.30;3.40;;;;;;;24.27;36.24;99476.97;5078484;28;20467;-55
2022/07/28 07:11:57;;;;;;;10.93;3.25;;;;;;;24.49;35.93;99467.72;5074497;28;20028;-54
2022/07/28 07:14:23;;;;;;;22.38;3.97;;;;;;;23.45;38.49;99467.91;5074386;28;20025;-55
2022/07/28 07:16:49;;;;;;;10.43;3.35;;;;;;;23.10;38.34;99467.88;5074078;28;20035;-55
2022/07/28 07:19:15;;;;;;;10.85;2.85;;;;;;;23.05;38.76;99468.03;5072892;28;20028;-56
2022/07/28 07:21:40;;;;;;;10.68;3.15;;;;;;;24.90;35.97;99476.38;5074411;28;20070;-56
2022/07/28 07:24:06;;;;;;;10.48;3.30;;;;;;;24.52;36.38;99475.28;5072755;28;20032;-55
2022/07/28 07:26:31;;;;;;;15.38;3.55;;;;;;;22.68;38.92;99472.13;5074215;28;20039;-56
2022/07/28 07:28:57;;;;;;;11.20;3.20;;;;;;;23.47;38.03;99466.47;5077895;28;20471;-55
2022/07/28 07:31:22;;;;;;;13.57;3.28;;;;;;;23.99;36.92;99470.25;5074155;28;20580;-55
2022/07/28 07:33:48;;;;;;;13.73;3.03;;;;;;;24.02;37.36;99461.41;5072506;28;20029;-56
2022/07/28 07:36:13;;;;;;;12.60;2.97;;;;;;;25.42;35.32;99472.47;5072645;28;20367;-54
2022/07/28 07:38:39;;;;;;;12.65;3.10;;;;;;;25.36;34.92;99466.38;5077876;28;20485;-56
2022/07/28 07:41:04;;;;;;;10.95;3.50;;;;;;;25.36;35.54;99458.13;5077986;28;20023;-54
2022/07/28 07:43:30;;;;;;;14.98;3.50;;;;;;;24.57;35.82;99457.84;5074054;28;20024;-55
2022/07/28 07:45:55;;;;;;;12.02;3.20;;;;;;;24.69;36.12;99457.94;5073870;28;20359;-55
2022/07/28 07:48:20;;;;;;;16.73;3.50;;;;;;;24.10;36.59;99463.31;5073822;28;20035;-54
2022/07/28 07:50:46;;;;;;;24.20;4.38;;;;;;;24.25;36.63;99451.81;5072543;28;20021;-54
2022/07/28 07:53:11;;;;;;;43.65;4.90;;;;;;;26.03;34.12;99448.81;5073828;28;20394;-56
2022/07/28 07:55:37;;;;;;;18.02;3.22;;;;;;;25.31;34.64;99450.13;5073362;28;20060;-55
2022/07/28 07:58:02;;;;;;;17.55;3.55;;;;;;;25.27;35.01;99452.75;5073434;28;20029;-54
2022/07/28 08:00:28;;;;;;;26.02;4.28;;;;;;;26.24;34.07;99442.44;5073640;28;20024;-55
2022/07/28 08:02:53;;;;;;;23.08;3.92;;;;;;;25.24;35.46;99447.94;5076691;28;20050;-55
2022/07/28 08:05:19;;;;;;;24.33;3.95;;;;;;;25.37;35.01;99448.78;5072883;28;20036;-54
2022/07/28 08:07:44;;;;;;;10.15;2.90;;;;;;;25.28;34.49;99448.06;5073377;28;20028;-56
2022/07/28 08:10:10;;;;;;;16.08;3.22;;;;;;;24.32;37.21;99441.16;5073930;28;20352;-56
2022/07/28 08:12:35;;;;;;;14.52;3.90;;;;;;;24.81;36.13;99445.44;5073110;28;20032;-55
2022/07/28 08:15:01;;;;;;;15.48;3.33;;;;;;;25.87;34.98;99441.56;5073369;28;20394;-57
2022/07/28 08:17:26;;;;;;;18.38;3.35;;;;;;;25.75;34.43;99434.84;5073432;28;20032;-53
2022/07/28 08:19:52;;;;;;;14.85;3.47;;;;;;;26.65;33.11;99444.16;5071646;28;20420;-56
2022/07/28 08:22:18;;;;;;;27.45;4.28;;;;;;;24.18;37.53;99439.78;5073239;28;20042;-56
2022/07/28 08:24:43;;;;;;;17.48;3.60;;;;;;;23.78;37.29;99440.84;5073566;28;20592;-54
2022/07/28 08:27:09;;;;;;;20.33;4.10;;;;;;;23.51;37.94;99432.97;5072812;28;20470;-54
2022/07/28 08:29:34;;;;;;;20.63;3.70;;;;;;;25.42;35.72;99432.13;5078624;28;20050;-54
2022/07/28 08:32:03;;;;;;;16.58;3.40;;;;;;;25.95;34.22;99419.50;5073092;28;20020;-55
2022/07/28 08:34:31;;;;;;;14.68;3.13;;;;;;;25.27;35.44;99425.31;5072166;28;20031;-55
2022/07/28 08:36:57;;;;;;;24.97;3.50;;;;;;;24.35;37.03;99428.75;5079098;28;20106;-54
2022/07/28 08:39:22;;;;;;;21.25;3.72;;;;;;;25.72;34.71;99423.78;5079395;28;20542;-54
2022/07/28 08:41:53;;;;;;;25.80;3.72;;;;;;;24.98;36.15;99423.41;5072553;28;20455;-55
2022/07/28 08:44:25;;;;;;;25.73;3.97;;;;;;;24.98;36.98;99428.88;5071593;28;20032;-55
2022/07/28 08:46:51;;;;;;;28.70;3.75;;;;;;;24.83;36.07;99429.47;5071692;28;20121;-56
2022/07/28 08:49:16;;;;;;;17.02;3.45;;;;;;;24.81;37.05;99429.00;5072189;28;20036;-53
2022/07/28 08:51:42;;;;;;;23.73;3.35;;;;;;;24.77;37.13;99428.88;5071358;28;20089;-56
2022/07/28 08:54:08;;;;;;;16.65;3.70;;;;;;;25.34;36.18;99424.78;5071262;28;20447;-55
2022/07/28 08:56:35;;;;;;;12.98;3.85;;;;;;;26.17;35.33;99418.28;5071238;28;20040;-53
2022/07/28 08:59:01;;;;;;;19.80;3.50;;;;;;;25.23;36.36;99418.88;5071212;28;20024;-55
2022/07/28 09:01:27;;;;;;;15.65;3.35;;;;;;;24.67;37.62;99416.38;5071300;28;20032;-54
2022/07/28 09:03:52;;;;;;;15.48;3.63;;;;;;;25.02;37.16;99415.34;5040186;28;20047;-56
2022/07/28 09:06:20;;;;;;;16.10;3.40;;;;;;;24.46;37.20;99419.06;5072444;28;20048;-57
2022/07/28 09:08:45;;;;;;;16.40;3.80;;;;;;;24.09;39.15;99406.97;5073310;28;20040;-54
2022/07/28 09:11:11;;;;;;;13.88;3.55;;;;;;;25.18;37.29;99408.91;5070987;28;20032;-54
2022/07/28 09:13:36;;;;;;;10.70;3.47;;;;;;;24.57;37.79;99413.22;5070867;28;20028;-54
2022/07/28 09:16:02;;;;;;;25.48;4.13;;;;;;;25.15;37.48;99408.75;5057824;28;20037;-56
2022/07/28 09:18:28;;;;;;;17.42;3.22;;;;;;;24.94;36.87;99409.56;5070349;28;20563;-55
2022/07/28 09:20:53;;;;;;;12.38;3.58;;;;;;;23.73;39.47;99412.88;5072229;28;20032;-54
2022/07/28 09:23:19;;;;;;;19.08;3.63;;;;;;;22.83;40.99;99397.88;5070985;28;20039;-56
2022/07/28 09:25:44;;;;;;;28.05;4.05;;;;;;;25.21;36.92;99412.97;5072067;28;20039;-53
2022/07/28 09:28:14;;;;;;;14.10;4.03;;;;;;;24.22;38.46;99403.19;5055356;28;20070;-54
2022/07/28 09:30:44;;;;;;;17.48;4.18;;;;;;;24.15;38.70;99402.09;5070652;28;20017;-54
2022/07/28 09:33:18;;;;;;;19.35;3.95;;;;;;;24.18;38.39;99402.25;5078158;28;20032;-56
2022/07/28 09:35:44;;;;;;;18.20;3.95;;;;;;;24.65;37.37;99404.94;5072016;28;20081;-54
2022/07/28 09:38:10;;;;;;;22.20;3.83;;;;;;;25.16;37.82;99397.50;5078354;28;20107;-56
2022/07/28 09:40:35;;;;;;;37.58;4.32;;;;;;;26.59;35.04;99398.03;5074363;28;20031;-55
2022/07/28 09:43:00;;;;;;;18.48;4.15;;;;;;;24.99;37.60;99394.88;5071930;28;20020;-55
2022/07/28 09:45:26;;;;;;;19.85;3.78;;;;;;;24.24;38.43;99389.19;5066650;28;20043;-55
2022/07/28 09:48:09;;;;;;;20.27;3.97;;;;;;;25.96;36.80;99379.09;5074691;28;20071;-54
2022/07/28 09:50:35;;;;;;;18.98;4.15;;;;;;;24.89;37.24;99387.03;5070819;28;20056;-53
2022/07/28 09:53:18;;;;;;;14.93;3.65;;;;;;;24.31;38.40;99384.81;5053989;28;20029;-55
2022/07/28 09:55:59;;;;;;;19.70;3.95;;;;;;;25.09;37.74;99371.72;5070792;28;20125;-55
2022/07/28 09:58:30;;;;;;;11.73;3.50;;;;;;;24.94;38.09;99386.84;5071906;28;20036;-53
2022/07/28 10:01:06;;;;;;;15.25;3.40;;;;;;;25.47;37.26;99377.03;5070566;28;20077;-54
2022/07/28 10:03:32;;;;;;;26.50;3.90;;;;;;;25.02;37.91;99385.16;5071003;28;20036;-55
2022/07/28 10:05:58;;;;;;;18.15;4.43;;;;;;;25.34;36.89;99370.72;5071939;28;20078;-56
2022/07/28 10:08:48;;;;;;;15.50;4.43;;;;;;;26.17;35.83;99368.03;5073470;28;20038;-56
2022/07/28 10:11:19;;;;;;;12.27;4.28;;;;;;;24.95;38.03;99380.22;5077624;28;20079;-55
2022/07/28 10:13:54;;;;;;;11.13;3.58;;;;;;;26.60;35.80;99366.66;5071854;28;20020;-56
2022/07/28 10:16:20;;;;;;;9.13;3.30;;;;;;;25.22;37.98;99370.66;5071819;28;20471;-54
2022/07/28 10:18:49;;;;;;;16.38;3.85;;;;;;;25.71;37.17;99364.50;5073602;28;20115;-55
2022/07/28 10:21:15;;;;;;;12.23;3.60;;;;;;;26.13;37.00;99367.09;5071435;28;20386;-55
2022/07/28 10:23:46;;;;;;;13.82;3.80;;;;;;;24.95;38.88;99374.72;5053902;28;20102;-53
2022/07/28 10:26:11;;;;;;;12.57;3.92;;;;;;;23.91;40.38;99367.88;5071882;28;20029;-55
2022/07/28 10:28:38;;;;;;;14.57;3.90;;;;;;;24.55;39.23;99361.47;5073148;28;20539;-56
2022/07/28 10:31:09;;;;;;;17.73;4.30;;;;;;;24.51;40.02;99355.88;5070323;28;20029;-55
2022/07/28 10:33:38;;;;;;;9.60;4.35;;;;;;;25.07;39.62;99352.84;5071423;28;20094;-53
2022/07/28 10:36:03;;;;;;;16.77;4.30;;;;;;;25.65;38.80;99357.66;5070293;28;20471;-55
2022/07/28 10:38:33;;;;;;;15.07;4.07;;;;;;;25.51;38.46;99342.31;5074110;28;20039;-56
2022/07/28 10:41:01;;;;;;;12.32;4.20;;;;;;;25.79;37.83;99347.94;5071667;28;20029;-55
2022/07/28 10:43:26;;;;;;;16.20;3.75;;;;;;;24.66;39.46;99351.75;5078913;28;20025;-55
2022/07/28 10:45:52;;;;;;;21.60;4.68;;;;;;;24.42;40.06;99344.13;5075328;28;20391;-54
2022/07/28 10:48:19;;;;;;;15.13;4.40;;;;;;;24.22;40.31;99347.63;5072137;28;20029;-54
2022/07/28 10:50:44;;;;;;;11.43;4.32;;;;;;;23.98;41.06;99353.69;5071379;28;20033;-54
2022/07/28 10:53:10;;;;;;;18.95;4.38;;;;;;;24.34;40.74;99345.00;5072001;28;20024;-55
2022/07/28 10:55:39;;;;;;;13.05;4.32;;;;;;;24.54;40.09;99343.44;5075053;28;20471;-56
2022/07/28 10:58:17;;;;;;;14.40;4.07;;;;;;;23.92;40.82;99344.06;5073706;28;20024;-55
2022/07/28 11:00:49;;;;;;;12.77;3.90;;;;;;;24.30;40.81;99338.56;5074948;28;20442;-55
2022/07/28 11:03:43;;;;;;;27.60;4.25;;;;;;;24.47;40.34;99335.75;5074059;28;20040;-56
2022/07/28 11:06:30;;;;;;;16.08;3.95;;;;;;;24.55;40.15;99336.81;5075564;28;20418;-55
2022/07/28 11:08:57;;;;;;;12.23;4.45;;;;;;;25.24;39.11;99331.94;5074538;28;20029;-55
2022/07/28 11:11:41;;;;;;;12.52;4.25;;;;;;;24.42;39.31;99324.16;5073220;28;20058;-55
2022/07/28 11:14:22;;;;;;;13.82;4.40;;;;;;;24.93;39.40;99322.97;5074131;28;20487;-54
2022/07/28 11:17:13;;;;;;;16.90;4.00;;;;;;;24.82;39.25;99315.50;5074581;28;20163;-55
2022/07/28 11:19:44;;;;;;;12.20;4.70;;;;;;;24.66;38.80;99315.28;5074102;28;20025;-55
2022/07/28 11:22:17;;;;;;;16.42;4.25;;;;;;;24.14;40.19;99316.44;5074319;28;20037;-53
2022/07/28 11:25:01;;;;;;;16.65;5.05;;;;;;;24.54;39.67;99318.78;5074569;28;20064;-56
2022/07/28 11:27:53;;;;;;;9.68;3.95;;;;;;;24.43;38.83;99312.84;5074062;28;20063;-57
2022/07/28 11:30:24;;;;;;;11.98;3.83;;;;;;;24.52;39.13;99321.06;5076130;28;20024;-54
2022/07/28 11:32:50;;;;;;;14.25;4.22;;;;;;;24.39;39.97;99311.09;5074036;28;20117;-55